Time;durP1;ratioP1;P1;durP2;ratioP2;P2;SDS_P1;SDS_P2;PMS_P1;PMS_P2;Temp;Humidity;BMP_temperature;BMP_pressure;BME280_temperature;BME280_humidity;BME280_pressure;Samples;Min_cycle;Max_cycle;Signal;HPM_P1;HPM_P2
2023/04/13 00:01:39;;;;;;;5.43;1.42;;;;;;;;;;5029020;28;20049;-72
2023/04/13 00:04:12;;;;;;;9.05;2.05;;;;;;;;;;5027892;28;20054;-73
2023/04/13 00:06:45;;;;;;;6.40;1.63;;;;;;;;;;5028478;28;20052;-73
2023/04/13 00:09:18;;;;;;;3.25;1.52;;;;;;;;;;5028512;28;20049;-73
2023/04/13 00:11:49;;;;;;;4.95;1.60;;;;;;;;;;5027769;28;20048;-72
2023/04/13 00:14:26;;;;;;;5.78;1.60;;;;;;;;;;5028435;28;20052;-76
2023/04/13 00:16:57;;;;;;;5.57;1.73;;;;;;;;;;5028121;28;20048;-73
2023/04/13 00:19:28;;;;;;;7.30;1.70;;;;;;;;;;5027999;28;20053;-73
2023/04/13 00:21:59;;;;;;;3.80;1.60;;;;;;;;;;5027690;28;20057;-73
2023/04/13 00:24:37;;;;;;;5.55;1.38;;;;;;;;;;5028052;28;20052;-72
2023/04/13 00:27:09;;;;;;;6.47;1.75;;;;;;;;;;5027137;28;20575;-72
2023/04/13 00:29:47;;;;;;;8.82;2.30;;;;;;;;;;5027418;28;20064;-77
2023/04/13 00:32:18;;;;;;;11.80;1.83;;;;;;;;;;5027151;28;20053;-72
2023/04/13 00:34:50;;;;;;;6.72;1.80;;;;;;;;;;5027964;28;20374;-74
2023/04/13 00:37:23;;;;;;;8.10;1.90;;;;;;;;;;5026116;28;20045;-72
2023/04/13 00:39:54;;;;;;;9.68;2.00;;;;;;;;;;5028146;28;20056;-72
2023/04/13 00:42:25;;;;;;;8.55;1.85;;;;;;;;;;5028129;28;20052;-72
2023/04/13 00:44:56;;;;;;;9.52;2.03;;;;;;;;;;5027513;28;20068;-71
2023/04/13 00:47:34;;;;;;;7.15;1.65;;;;;;;;;;5025537;28;20053;-72
2023/04/13 00:50:08;;;;;;;6.35;1.63;;;;;;;;;;5025224;28;20052;-72
2023/04/13 00:52:41;;;;;;;5.70;2.05;;;;;;;;;;5027142;28;20397;-73
2023/04/13 00:55:13;;;;;;;6.93;1.65;;;;;;;;;;5025802;28;20141;-72
2023/04/13 00:57:48;;;;;;;4.28;1.80;;;;;;;;;;5026179;28;20049;-71
2023/04/13 01:00:20;;;;;;;8.63;1.70;;;;;;;;;;5025245;28;20053;-72
2023/04/13 01:02:52;;;;;;;3.00;1.48;;;;;;;;;;5024968;28;20049;-72
2023/04/13 01:05:25;;;;;;;3.15;1.42;;;;;;;;;;5026159;28;20526;-72
2023/04/13 01:08:00;;;;;;;6.20;1.70;;;;;;;;;;5026631;28;20531;-72
2023/04/13 01:10:55;;;;;;;4.68;1.77;;;;;;;;;;5025969;28;20649;-72
2023/04/13 01:13:43;;;;;;;6.47;1.88;;;;;;;;;;5025701;28;20053;-72
2023/04/13 01:16:26;;;;;;;7.80;1.90;;;;;;;;;;5025889;28;20543;-73
2023/04/13 01:18:59;;;;;;;3.33;1.60;;;;;;;;;;5025948;28;20056;-72
2023/04/13 01:21:34;;;;;;;3.63;1.63;;;;;;;;;;5025833;28;20053;-72
2023/04/13 01:24:16;;;;;;;6.03;1.75;;;;;;;;;;5027711;28;20385;-73
2023/04/13 01:26:47;;;;;;;4.82;1.70;;;;;;;;;;5027415;28;20041;-73
2023/04/13 01:29:18;;;;;;;2.67;1.45;;;;;;;;;;5025224;28;20049;-73
2023/04/13 01:31:51;;;;;;;6.25;1.80;;;;;;;;;;5025793;28;20061;-72
2023/04/13 01:34:23;;;;;;;8.88;1.65;;;;;;;;;;5025826;28;20057;-73
2023/04/13 01:36:54;;;;;;;3.30;1.50;;;;;;;;;;5027143;28;20049;-74
2023/04/13 01:39:30;;;;;;;6.32;1.73;;;;;;;;;;5026338;28;20060;-74
2023/04/13 01:42:10;;;;;;;7.97;1.90;;;;;;;;;;5025596;28;20053;-74
2023/04/13 01:44:44;;;;;;;4.38;1.70;;;;;;;;;;5025852;28;20057;-73
2023/04/13 01:47:19;;;;;;;2.47;1.50;;;;;;;;;;5027037;28;20064;-72
2023/04/13 01:50:03;;;;;;;2.65;1.40;;;;;;;;;;5025151;28;20540;-72
2023/04/13 01:52:54;;;;;;;4.25;1.60;;;;;;;;;;5025686;28;20046;-73
2023/04/13 01:55:25;;;;;;;;;;;;;;;;;;5025692;28;20045;-73
2023/04/13 01:58:00;;;;;;;4.80;1.50;;;;;;;;;;5025215;28;20410;-74
2023/04/13 02:00:36;;;;;;;4.97;1.40;;;;;;;;;;5025682;28;20054;-73
2023/04/13 02:03:14;;;;;;;6.50;1.65;;;;;;;;;;5025403;28;20057;-73
2023/04/13 02:05:44;;;;;;;4.88;1.60;;;;;;;;;;5025599;28;20049;-73
2023/04/13 02:08:17;;;;;;;5.93;1.42;;;;;;;;;;5024934;28;20049;-73
2023/04/13 02:10:49;;;;;;;4.82;1.70;;;;;;;;;;5026108;28;20062;-72
2023/04/13 02:13:20;;;;;;;4.32;1.52;;;;;;;;;;5025373;28;20057;-73
2023/04/13 02:15:51;;;;;;;3.15;1.50;;;;;;;;;;5024719;28;20052;-74
2023/04/13 02:18:23;;;;;;;5.80;1.35;;;;;;;;;;5009822;28;20080;-74
2023/04/13 02:21:07;;;;;;;2.28;1.13;;;;;;;;;;5009682;28;20065;-74
2023/04/13 02:23:41;;;;;;;5.63;1.60;;;;;;;;;;5026228;28;20053;-74
2023/04/13 02:26:12;;;;;;;3.90;1.40;;;;;;;;;;5025871;28;20060;-73
2023/04/13 02:28:43;;;;;;;7.05;2.25;;;;;;;;;;5026262;28;20058;-74
2023/04/13 02:31:18;;;;;;;6.50;2.05;;;;;;;;;;5024666;28;20049;-72
2023/04/13 02:33:50;;;;;;;10.85;2.40;;;;;;;;;;5025437;28;20057;-74
2023/04/13 02:36:21;;;;;;;4.88;1.77;;;;;;;;;;5025665;28;20401;-74
2023/04/13 02:39:00;;;;;;;7.38;1.88;;;;;;;;;;5025251;28;20072;-73
2023/04/13 02:41:33;;;;;;;4.75;1.75;;;;;;;;;;5025306;28;20064;-73
2023/04/13 02:44:05;;;;;;;7.00;2.13;;;;;;;;;;5025387;28;20428;-71
2023/04/13 02:46:45;;;;;;;10.95;2.05;;;;;;;;;;5023850;28;20065;-74
2023/04/13 02:49:17;;;;;;;4.65;1.70;;;;;;;;;;5025475;28;20423;-73
2023/04/13 02:52:13;;;;;;;13.38;2.00;;;;;;;;;;5025155;28;20053;-73
2023/04/13 02:54:57;;;;;;;8.52;2.08;;;;;;;;;;5024715;28;20053;-74
2023/04/13 02:57:33;;;;;;;12.45;2.03;;;;;;;;;;5025089;28;20050;-73
2023/04/13 03:00:15;;;;;;;15.68;2.00;;;;;;;;;;5025730;28;20404;-74
2023/04/13 03:02:56;;;;;;;7.95;1.73;;;;;;;;;;5028701;28;20053;-74
2023/04/13 03:05:32;;;;;;;5.43;1.90;;;;;;;;;;5028551;28;20404;-73
2023/04/13 03:08:04;;;;;;;8.07;2.22;;;;;;;;;;5028520;28;20068;-74
2023/04/13 03:10:38;;;;;;;7.63;1.50;;;;;;;;;;5029168;28;20060;-73
2023/04/13 03:13:08;;;;;;;9.00;1.55;;;;;;;;;;5027932;28;20524;-74
2023/04/13 03:15:41;;;;;;;12.20;1.95;;;;;;;;;;5027471;28;20424;-72
2023/04/13 03:18:13;;;;;;;9.20;1.75;;;;;;;;;;5028330;28;20535;-72
2023/04/13 03:20:43;;;;;;;5.97;1.92;;;;;;;;;;5028275;28;20053;-71
2023/04/13 03:23:15;;;;;;;12.38;2.13;;;;;;;;;;5028645;28;20057;-71
2023/04/13 03:25:45;;;;;;;24.73;2.35;;;;;;;;;;5028862;28;20046;-72
2023/04/13 03:28:18;;;;;;;11.25;2.00;;;;;;;;;;5027976;28;20057;-72
2023/04/13 03:30:49;;;;;;;5.68;1.50;;;;;;;;;;5012732;28;20060;-72
2023/04/13 03:33:20;;;;;;;10.23;1.70;;;;;;;;;;5029060;28;20052;-73
2023/04/13 03:35:51;;;;;;;10.02;2.00;;;;;;;;;;5028026;28;20508;-73
2023/04/13 03:38:28;;;;;;;7.03;2.03;;;;;;;;;;5012619;28;20393;-73
2023/04/13 03:40:58;;;;;;;11.98;2.22;;;;;;;;;;5029036;28;20053;-72
2023/04/13 03:43:30;;;;;;;11.75;2.30;;;;;;;;;;5026714;28;20528;-72
2023/04/13 03:46:07;;;;;;;7.07;1.92;;;;;;;;;;5027741;28;20531;-73
2023/04/13 03:48:40;;;;;;;9.70;2.42;;;;;;;;;;5028454;28;20056;-73
2023/04/13 03:51:15;;;;;;;9.77;2.30;;;;;;;;;;5011529;28;20049;-72
2023/04/13 03:53:49;;;;;;;10.02;2.00;;;;;;;;;;5028017;28;20068;-73
2023/04/13 03:56:23;;;;;;;9.35;2.25;;;;;;;;;;5027222;28;20049;-72
2023/04/13 03:58:55;;;;;;;6.63;2.25;;;;;;;;;;5027317;28;20057;-73
2023/04/13 04:01:27;;;;;;;12.98;2.13;;;;;;;;;;5027121;28;20527;-73
2023/04/13 04:03:58;;;;;;;7.85;1.98;;;;;;;;;;5027240;28;20057;-72
2023/04/13 04:06:30;;;;;;;17.95;2.13;;;;;;;;;;5026985;28;20057;-73
2023/04/13 04:09:12;;;;;;;15.40;2.88;;;;;;;;;;5027645;28;20049;-72
2023/04/13 04:11:46;;;;;;;10.82;2.22;;;;;;;;;;5026810;28;20041;-73
2023/04/13 04:14:25;;;;;;;8.93;2.03;;;;;;;;;;5027128;28;20417;-73
2023/04/13 04:17:04;;;;;;;16.65;2.53;;;;;;;;;;5026714;28;20136;-72
2023/04/13 04:19:34;;;;;;;6.88;2.00;;;;;;;;;;5010949;28;20076;-71
2023/04/13 04:22:08;;;;;;;7.60;1.88;;;;;;;;;;5027086;28;20547;-73
2023/04/13 04:24:42;;;;;;;8.32;2.70;;;;;;;;;;5026941;28;20057;-73
2023/04/13 04:27:13;;;;;;;11.23;2.10;;;;;;;;;;5026782;28;20053;-73
2023/04/13 04:29:48;;;;;;;9.32;2.53;;;;;;;;;;5026701;28;20045;-72
2023/04/13 04:32:29;;;;;;;8.70;2.10;;;;;;;;;;5026722;28;20053;-72
2023/04/13 04:35:02;;;;;;;8.63;2.40;;;;;;;;;;5027090;28;20531;-72
2023/04/13 04:37:40;;;;;;;7.90;2.45;;;;;;;;;;5026780;28;20060;-72
2023/04/13 04:40:16;;;;;;;10.25;2.40;;;;;;;;;;5026425;28;20389;-73
2023/04/13 04:42:46;;;;;;;8.10;2.30;;;;;;;;;;5025989;28;20057;-73
2023/04/13 04:45:31;;;;;;;5.00;2.05;;;;;;;;;;5026400;28;20060;-72
2023/04/13 04:48:02;;;;;;;7.93;2.42;;;;;;;;;;5026394;28;20053;-72
2023/04/13 04:50:33;;;;;;;5.22;2.45;;;;;;;;;;5026434;28;20068;-72
2023/04/13 04:53:10;;;;;;;8.93;2.40;;;;;;;;;;5026559;28;20570;-73
2023/04/13 04:55:43;;;;;;;4.50;2.00;;;;;;;;;;5027868;28;20080;-72
2023/04/13 04:58:22;;;;;;;5.25;2.30;;;;;;;;;;5026292;28;20054;-72
2023/04/13 05:00:55;;;;;;;6.40;2.13;;;;;;;;;;5025915;28;20143;-72
2023/04/13 05:03:25;;;;;;;7.13;2.33;;;;;;;;;;5027732;28;20057;-72
2023/04/13 05:06:06;;;;;;;7.43;2.00;;;;;;;;;;5025436;28;20068;-71
2023/04/13 05:08:38;;;;;;;9.85;2.47;;;;;;;;;;5026398;28;20124;-72
2023/04/13 05:11:08;;;;;;;8.52;2.20;;;;;;;;;;5025886;28;20046;-72
2023/04/13 05:13:39;;;;;;;7.68;2.72;;;;;;;;;;5025977;28;20496;-73
2023/04/13 05:16:20;;;;;;;7.03;2.35;;;;;;;;;;5025824;28;20061;-72
2023/04/13 05:18:53;;;;;;;8.75;2.00;;;;;;;;;;5025975;28;20049;-73
2023/04/13 05:21:41;;;;;;;5.32;2.35;;;;;;;;;;5026529;28;20053;-72
2023/04/13 05:24:12;;;;;;;10.50;3.05;;;;;;;;;;5025801;28;20049;-73
2023/04/13 05:26:43;;;;;;;5.45;2.42;;;;;;;;;;5025717;28;20064;-73
2023/04/13 05:29:20;;;;;;;7.35;1.95;;;;;;;;;;5025830;28;20058;-73
2023/04/13 05:31:52;;;;;;;5.47;1.80;;;;;;;;;;5025880;28;20045;-73
2023/04/13 05:34:22;;;;;;;5.65;2.00;;;;;;;;;;5025719;28;20061;-72
2023/04/13 05:37:04;;;;;;;7.32;2.35;;;;;;;;;;5026355;28;20056;-72
2023/04/13 05:39:35;;;;;;;11.07;2.90;;;;;;;;;;5025475;28;20045;-72
2023/04/13 05:42:06;;;;;;;11.27;4.88;;;;;;;;;;5025846;28;20389;-72
2023/04/13 05:44:41;;;;;;;17.80;5.00;;;;;;;;;;5025902;28;20049;-72
2023/04/13 05:47:14;;;;;;;18.23;4.22;;;;;;;;;;5025365;28;20072;-72
2023/04/13 05:49:47;;;;;;;7.85;3.65;;;;;;;;;;5025795;28;20045;-72
2023/04/13 05:52:20;;;;;;;4.72;2.80;;;;;;;;;;5025713;28;20049;-72
2023/04/13 05:54:52;;;;;;;6.70;3.00;;;;;;;;;;5025447;28;20530;-72
2023/04/13 05:57:24;;;;;;;9.93;3.30;;;;;;;;;;5025667;28;20408;-73
2023/04/13 05:59:56;;;;;;;8.57;3.40;;;;;;;;;;5025208;28;20053;-72
2023/04/13 06:02:40;;;;;;;11.88;2.88;;;;;;;;;;5031877;28;20053;-72
2023/04/13 06:05:14;;;;;;;11.52;3.45;;;;;;;;;;5025797;28;20055;-73
2023/04/13 06:07:46;;;;;;;10.63;3.25;;;;;;;;;;5009882;28;20056;-73
2023/04/13 06:10:18;;;;;;;12.63;4.97;;;;;;;;;;5025896;28;20061;-72
2023/04/13 06:12:51;;;;;;;8.77;3.70;;;;;;;;;;5025751;28;20058;-72
2023/04/13 06:15:21;;;;;;;9.90;4.63;;;;;;;;;;5026569;28;20045;-72
2023/04/13 06:17:52;;;;;;;9.20;5.32;;;;;;;;;;5026576;28;20045;-72
2023/04/13 06:20:24;;;;;;;18.20;5.20;;;;;;;;;;5025956;28;20054;-72
2023/04/13 06:22:56;;;;;;;13.77;4.28;;;;;;;;;;5026039;28;20054;-73
2023/04/13 06:25:27;;;;;;;9.90;5.18;;;;;;;;;;5024994;28;20402;-72
2023/04/13 06:28:01;;;;;;;14.10;5.35;;;;;;;;;;5025016;28;20053;-73
2023/04/13 06:30:36;;;;;;;14.07;5.72;;;;;;;;;;5025517;28;20089;-72
2023/04/13 06:33:10;;;;;;;;;;;;;;;;;;5025628;28;20049;-72
2023/04/13 06:35:40;;;;;;;12.05;5.00;;;;;;;;;;5026785;28;19921;-72
2023/04/13 06:38:12;;;;;;;13.63;6.00;;;;;;;;;;5028892;28;20049;-72
2023/04/13 06:41:03;;;;;;;11.02;5.60;;;;;;;;;;5029065;28;20053;-73
2023/04/13 06:44:14;;;;;;;12.95;5.57;;;;;;;;;;5028683;28;20049;-72
2023/04/13 06:46:52;;;;;;;13.15;4.95;;;;;;;;;;5028509;28;20057;-72
2023/04/13 06:49:24;;;;;;;10.10;4.88;;;;;;;;;;5029124;28;20077;-72
2023/04/13 06:51:55;;;;;;;12.00;4.88;;;;;;;;;;5029193;28;20045;-72
2023/04/13 06:54:25;;;;;;;9.27;4.70;;;;;;;;;;5028625;28;20046;-72
2023/04/13 06:57:01;;;;;;;8.13;4.75;;;;;;;;;;5028936;28;20057;-73
2023/04/13 06:59:32;;;;;;;15.23;6.13;;;;;;;;;;5029836;28;20062;-72
2023/04/13 07:02:02;;;;;;;14.13;5.55;;;;;;;;;;5028185;28;20420;-73
2023/04/13 07:04:32;;;;;;;12.05;5.93;;;;;;;;;;5028036;28;20057;-71
2023/04/13 07:07:04;;;;;;;10.18;4.75;;;;;;;;;;5028083;28;20430;-73
2023/04/13 07:09:34;;;;;;;16.10;4.65;;;;;;;;;;5028247;28;20053;-72
2023/04/13 07:12:06;;;;;;;11.80;4.88;;;;;;;;;;5029777;28;20084;-73
2023/04/13 07:14:39;;;;;;;13.07;4.00;;;;;;;;;;5027897;28;20061;-72
2023/04/13 07:17:12;;;;;;;8.93;4.05;;;;;;;;;;5028005;28;20057;-72
2023/04/13 07:19:46;;;;;;;9.45;3.38;;;;;;;;;;5028414;28;20052;-72
2023/04/13 07:22:18;;;;;;;9.77;3.58;;;;;;;;;;5028231;28;20052;-71
2023/04/13 07:24:50;;;;;;;8.20;3.38;;;;;;;;;;5028106;28;20531;-74
2023/04/13 07:27:21;;;;;;;6.30;2.95;;;;;;;;;;5027661;28;20496;-72
2023/04/13 07:30:00;;;;;;;5.97;3.10;;;;;;;;;;5012365;28;20065;-72
2023/04/13 07:32:36;;;;;;;9.82;2.88;;;;;;;;;;5027983;28;20057;-71
2023/04/13 07:35:11;;;;;;;7.88;2.72;;;;;;;;;;5029386;28;20041;-72
2023/04/13 07:37:45;;;;;;;6.93;2.90;;;;;;;;;;5028189;28;20077;-71
2023/04/13 07:40:19;;;;;;;6.07;2.83;;;;;;;;;;5027712;28;20060;-72
2023/04/13 07:42:55;;;;;;;7.55;2.92;;;;;;;;;;5028072;28;20428;-71
2023/04/13 07:45:30;;;;;;;6.78;2.67;;;;;;;;;;5027434;28;20065;-72
2023/04/13 07:48:00;;;;;;;8.27;2.78;;;;;;;;;;5027273;28;20416;-72
2023/04/13 07:50:31;;;;;;;5.93;2.50;;;;;;;;;;5027673;28;20042;-72
2023/04/13 07:53:02;;;;;;;6.60;2.88;;;;;;;;;;5027109;28;20072;-72
2023/04/13 07:55:32;;;;;;;8.13;2.80;;;;;;;;;;5027438;28;20405;-72
2023/04/13 07:58:02;;;;;;;7.20;2.72;;;;;;;;;;5027493;28;20049;-72
2023/04/13 08:00:33;;;;;;;7.00;2.70;;;;;;;;;;5027395;28;20516;-73
2023/04/13 08:03:06;;;;;;;6.68;2.58;;;;;;;;;;5026741;28;20065;-72
2023/04/13 08:05:38;;;;;;;7.00;2.70;;;;;;;;;;5027199;28;20053;-72
2023/04/13 08:08:09;;;;;;;6.53;2.60;;;;;;;;;;5027033;28;20057;-71
2023/04/13 08:10:39;;;;;;;4.07;2.25;;;;;;;;;;5028499;28;20121;-73
2023/04/13 08:13:10;;;;;;;5.05;2.47;;;;;;;;;;5026721;28;20057;-71
2023/04/13 08:15:40;;;;;;;9.27;2.40;;;;;;;;;;5026908;28;20053;-71
2023/04/13 08:18:11;;;;;;;4.82;1.95;;;;;;;;;;5026715;28;20520;-72
2023/04/13 08:20:43;;;;;;;9.20;2.50;;;;;;;;;;5026597;28;20045;-71
2023/04/13 08:23:14;;;;;;;3.50;2.03;;;;;;;;;;5027305;28;20060;-78
2023/04/13 08:25:46;;;;;;;6.00;1.90;;;;;;;;;;5027726;28;20049;-71
2023/04/13 08:28:16;;;;;;;4.05;1.80;;;;;;;;;;5027585;28;20060;-73
2023/04/13 08:30:48;;;;;;;2.97;1.70;;;;;;;;;;5028352;28;20050;-73
2023/04/13 08:33:19;;;;;;;3.10;1.70;;;;;;;;;;5026937;28;20408;-72
2023/04/13 08:35:50;;;;;;;2.65;1.60;;;;;;;;;;5026401;28;20045;-73
2023/04/13 08:38:21;;;;;;;5.65;1.50;;;;;;;;;;5026397;28;20068;-72
2023/04/13 08:40:52;;;;;;;3.15;1.40;;;;;;;;;;5026002;28;20065;-71
2023/04/13 08:43:34;;;;;;;3.83;1.27;;;;;;;;;;5025844;28;20061;-73
2023/04/13 08:46:07;;;;;;;4.10;1.40;;;;;;;;;;5026238;28;20053;-73
2023/04/13 08:48:44;;;;;;;1.92;1.08;;;;;;;;;;5026060;28;20428;-73
2023/04/13 08:51:33;;;;;;;2.17;0.90;;;;;;;;;;5025863;28;20057;-73
2023/04/13 08:54:04;;;;;;;3.42;0.90;;;;;;;;;;5027397;28;20041;-72
2023/04/13 08:56:40;;;;;;;4.00;0.95;;;;;;;;;;5025612;28;20389;-73
2023/04/13 08:59:21;;;;;;;2.95;0.70;;;;;;;;;;5024736;28;20519;-73
2023/04/13 09:01:53;;;;;;;4.28;1.27;;;;;;;;;;5028001;28;20053;-75
2023/04/13 09:04:35;;;;;;;2.72;0.80;;;;;;;;;;5026847;28;20512;-72
2023/04/13 09:07:07;;;;;;;1.17;0.77;;;;;;;;;;5027324;28;20046;-74
2023/04/13 09:09:41;;;;;;;1.42;0.52;;;;;;;;;;5026128;28;20064;-73
2023/04/13 09:12:14;;;;;;;1.27;0.60;;;;;;;;;;5027583;28;20400;-73
2023/04/13 09:14:45;;;;;;;2.88;0.63;;;;;;;;;;5025883;28;20527;-74
2023/04/13 09:17:26;;;;;;;1.88;0.50;;;;;;;;;;5026940;28;20053;-72
2023/04/13 09:20:22;;;;;;;1.58;0.65;;;;;;;;;;5025811;28;20049;-74
2023/04/13 09:22:52;;;;;;;;;;;;;;;;;;5027624;28;20052;-73
2023/04/13 09:25:24;;;;;;;4.80;0.68;;;;;;;;;;5025772;28;19925;-73
2023/04/13 09:27:56;;;;;;;2.90;0.50;;;;;;;;;;5026696;28;20484;-72
2023/04/13 09:30:27;;;;;;;1.85;0.47;;;;;;;;;;5025530;28;20057;-72
2023/04/13 09:33:10;;;;;;;2.00;0.60;;;;;;;;;;5027035;28;20052;-74
2023/04/13 09:35:41;;;;;;;4.75;0.57;;;;;;;;;;5026205;28;20057;-73
2023/04/13 09:38:15;;;;;;;2.38;0.68;;;;;;;;;;5026446;28;20053;-77
2023/04/13 09:40:50;;;;;;;0.40;0.30;;;;;;;;;;5026632;28;20057;-74
2023/04/13 09:43:20;;;;;;;1.67;0.60;;;;;;;;;;5025774;28;20056;-74
2023/04/13 09:45:51;;;;;;;1.92;0.63;;;;;;;;;;5026057;28;20629;-74
2023/04/13 09:48:22;;;;;;;3.03;0.80;;;;;;;;;;5026390;28;20053;-75
2023/04/13 09:50:59;;;;;;;5.80;0.85;;;;;;;;;;5026243;28;20053;-75
2023/04/13 09:53:46;;;;;;;2.33;0.60;;;;;;;;;;5026302;28;20053;-74
2023/04/13 09:56:17;;;;;;;1.42;0.52;;;;;;;;;;5026201;28;20042;-76
2023/04/13 10:10:50;;;;;;;8.13;1.35;;;;;;;;;;5083729;27;20410;-75
2023/04/13 10:13:25;;;;;;;2.75;0.70;;;;;;;;;;5084327;28;20047;-74
2023/04/13 10:16:20;;;;;;;3.67;1.13;;;;;;;;;;5082985;28;20052;-77
2023/04/13 10:19:00;;;;;;;3.83;0.70;;;;;;;;;;5062735;28;20430;-75
2023/04/13 10:21:34;;;;;;;5.35;1.40;;;;;;;;;;5063930;28;20143;-76
2023/04/13 10:24:08;;;;;;;2.13;0.90;;;;;;;;;;5063562;28;20063;-74
2023/04/13 10:26:43;;;;;;;3.95;0.90;;;;;;;;;;5063137;28;20414;-75
2023/04/13 10:29:15;;;;;;;4.30;0.90;;;;;;;;;;5063994;28;20055;-74
2023/04/13 10:31:51;;;;;;;3.47;0.90;;;;;;;;;;5063930;28;20426;-75
2023/04/13 10:34:29;;;;;;;3.20;1.27;;;;;;;;;;5063656;28;20045;-76
2023/04/13 10:37:07;;;;;;;5.03;1.30;;;;;;;;;;5062633;28;20053;-75
2023/04/13 10:39:37;;;;;;;4.40;1.05;;;;;;;;;;5063005;28;20056;-74
2023/04/13 10:42:09;;;;;;;6.43;1.70;;;;;;;;;;5063171;28;20052;-76
2023/04/13 10:44:49;;;;;;;5.97;0.80;;;;;;;;;;5063220;28;20055;-74
2023/04/13 10:47:21;;;;;;;4.70;1.35;;;;;;;;;;5063063;28;20029;-78
2023/04/13 10:49:55;;;;;;;1.65;0.85;;;;;;;;;;5063148;28;20048;-78
2023/04/13 10:52:27;;;;;;;2.40;1.17;;;;;;;;;;5063438;28;20049;-79
2023/04/13 10:54:58;;;;;;;2.63;1.20;;;;;;;;;;5062117;28;20053;-77
2023/04/13 10:57:33;;;;;;;3.03;1.02;;;;;;;;;;5063163;28;20758;-78
2023/04/13 11:00:23;;;;;;;5.15;0.93;;;;;;;;;;5062643;28;20063;-74
2023/04/13 11:03:17;;;;;;;4.22;1.02;;;;;;;;;;5074296;28;20049;-76
2023/04/13 11:05:57;;;;;;;7.00;1.25;;;;;;;;;;5061780;28;20055;-78
2023/04/13 11:08:27;;;;;;;3.42;0.90;;;;;;;;;;5062321;28;20048;-76
2023/04/13 11:10:57;;;;;;;3.42;0.98;;;;;;;;;;5074073;28;20085;-74
2023/04/13 11:13:30;;;;;;;3.45;0.85;;;;;;;;;;5069400;28;20048;-77
2023/04/13 11:16:05;;;;;;;2.63;0.90;;;;;;;;;;5069277;28;20051;-76
2023/04/13 11:18:35;;;;;;;6.82;0.90;;;;;;;;;;5068526;28;20048;-76
2023/04/13 11:21:16;;;;;;;2.95;0.93;;;;;;;;;;5067729;28;20052;-76
2023/04/13 11:23:53;;;;;;;10.05;1.05;;;;;;;;;;5069723;28;20048;-74
2023/04/13 11:26:32;;;;;;;5.93;1.02;;;;;;;;;;5067788;28;20083;-77
2023/04/13 11:29:04;;;;;;;7.05;1.20;;;;;;;;;;5068840;28;20059;-74
2023/04/13 11:31:41;;;;;;;4.80;0.80;;;;;;;;;;5068569;28;20048;-77
2023/04/13 11:34:12;;;;;;;5.80;1.05;;;;;;;;;;5068922;28;20380;-78
2023/04/13 11:36:48;;;;;;;3.55;0.88;;;;;;;;;;5066739;28;20142;-75
2023/04/13 11:39:19;;;;;;;7.47;1.90;;;;;;;;;;5066018;28;20423;-75
2023/04/13 11:41:48;;;;;;;6.32;3.65;;;;;;;;;;5066509;28;20632;-77
2023/04/13 11:44:21;;;;;;;4.28;1.38;;;;;;;;;;5068871;28;20495;-77
2023/04/13 11:46:55;;;;;;;5.47;1.00;;;;;;;;;;5068834;28;20052;-83
2023/04/13 11:49:26;;;;;;;7.45;1.30;;;;;;;;;;5068780;28;20052;-77
2023/04/13 11:51:57;;;;;;;6.18;0.95;;;;;;;;;;5068246;28;20418;-76
2023/04/13 11:54:29;;;;;;;4.65;1.50;;;;;;;;;;5066830;28;20048;-77
2023/04/13 11:57:00;;;;;;;7.57;1.10;;;;;;;;;;5068489;28;20056;-77
2023/04/13 11:59:31;;;;;;;2.67;1.23;;;;;;;;;;5068053;28;20052;-76
2023/04/13 12:02:05;;;;;;;6.47;1.35;;;;;;;;;;5067099;28;20091;-75
2023/04/13 12:04:50;;;;;;;5.40;1.20;;;;;;;;;;5068196;28;20048;-74
2023/04/13 12:07:22;;;;;;;2.92;1.13;;;;;;;;;;5068314;28;20060;-76
2023/04/13 12:09:54;;;;;;;4.82;1.00;;;;;;;;;;5067772;28;20055;-75
2023/04/13 12:12:31;;;;;;;6.20;0.75;;;;;;;;;;5068168;28;20068;-74
2023/04/13 12:15:05;;;;;;;7.32;1.70;;;;;;;;;;5067962;28;20057;-73
2023/04/13 12:17:58;;;;;;;5.68;4.18;;;;;;;;;;5068349;28;20051;-77
2023/04/13 12:20:46;;;;;;;8.80;3.38;;;;;;;;;;5068290;28;20055;-74
2023/04/13 12:23:20;;;;;;;6.47;1.55;;;;;;;;;;5066498;28;20049;-75
2023/04/13 12:25:56;;;;;;;4.70;1.17;;;;;;;;;;5067379;28;20044;-76
2023/04/13 12:28:35;;;;;;;5.78;1.30;;;;;;;;;;5067169;28;20044;-77
2023/04/13 12:31:11;;;;;;;7.93;1.58;;;;;;;;;;5067928;28;20388;-78
2023/04/13 12:33:41;;;;;;;10.73;1.48;;;;;;;;;;5067231;28;20044;-77
2023/04/13 12:36:11;;;;;;;6.38;1.73;;;;;;;;;;5067677;28;20048;-79
2023/04/13 12:38:41;;;;;;;7.40;1.75;;;;;;;;;;5067859;28;20040;-78
2023/04/13 12:41:11;;;;;;;7.00;1.05;;;;;;;;;;5067332;28;20055;-77
2023/04/13 12:43:42;;;;;;;6.88;2.80;;;;;;;;;;5068444;28;20059;-76
2023/04/13 12:46:13;;;;;;;3.30;1.25;;;;;;;;;;5067885;28;20048;-77
2023/04/13 12:48:43;;;;;;;4.22;1.38;;;;;;;;;;5067306;28;20044;-75
2023/04/13 12:51:15;;;;;;;8.35;2.70;;;;;;;;;;5067476;28;20052;-77
2023/04/13 12:53:46;;;;;;;4.88;1.67;;;;;;;;;;5065721;28;20051;-76
2023/04/13 12:56:19;;;;;;;7.43;1.55;;;;;;;;;;5065558;28;20079;-74
2023/04/13 12:58:49;;;;;;;4.57;1.45;;;;;;;;;;5065257;28;20052;-76
2023/04/13 13:01:20;;;;;;;7.47;1.40;;;;;;;;;;5065558;28;20044;-77
2023/04/13 13:03:51;;;;;;;8.05;1.55;;;;;;;;;;5067086;28;20048;-78
2023/04/13 13:06:21;;;;;;;4.60;0.80;;;;;;;;;;5065887;28;20055;-76
2023/04/13 13:08:53;;;;;;;4.75;1.00;;;;;;;;;;5067535;28;20061;-74
2023/04/13 13:11:23;;;;;;;7.25;1.75;;;;;;;;;;5067471;28;20052;-76
2023/04/13 13:13:54;;;;;;;6.13;1.05;;;;;;;;;;5067040;28;20044;-76
2023/04/13 13:16:26;;;;;;;10.80;1.95;;;;;;;;;;5066886;28;20060;-76
2023/04/13 13:18:56;;;;;;;6.43;1.40;;;;;;;;;;5066957;28;20495;-75
2023/04/13 13:21:26;;;;;;;5.28;1.15;;;;;;;;;;5066516;28;20041;-77
2023/04/13 13:23:57;;;;;;;6.10;1.35;;;;;;;;;;5065817;28;20053;-78
2023/04/13 13:26:29;;;;;;;5.38;1.38;;;;;;;;;;5067256;28;20059;-77
2023/04/13 13:29:24;;;;;;;;;;;;;;;;;;5067771;28;20047;-75
2023/04/13 13:31:54;;;;;;;6.25;2.55;;;;;;;;;;5066504;28;19921;-74
2023/04/13 13:34:24;;;;;;;8.27;1.40;;;;;;;;;;5066669;28;20060;-76
2023/04/13 13:36:55;;;;;;;8.40;1.33;;;;;;;;;;5066958;28;20044;-77
2023/04/13 13:39:30;;;;;;;5.65;1.60;;;;;;;;;;5067279;28;20935;-75
2023/04/13 13:42:02;;;;;;;6.97;1.63;;;;;;;;;;5066916;28;20411;-74
2023/04/13 13:44:33;;;;;;;10.88;1.30;;;;;;;;;;5066286;28;20433;-74
2023/04/13 13:47:05;;;;;;;9.40;2.00;;;;;;;;;;5066739;28;20052;-75
2023/04/13 13:49:42;;;;;;;5.13;1.33;;;;;;;;;;5065702;28;20059;-81
2023/04/13 13:52:19;;;;;;;12.35;2.35;;;;;;;;;;5064483;28;20060;-75
2023/04/13 13:54:53;;;;;;;4.15;1.38;;;;;;;;;;5064038;28;20057;-76
2023/04/13 13:57:24;;;;;;;11.70;3.28;;;;;;;;;;5066264;28;20056;-75
2023/04/13 13:59:55;;;;;;;11.00;2.38;;;;;;;;;;5066115;28;20040;-75
2023/04/13 14:02:25;;;;;;;6.40;1.38;;;;;;;;;;5066160;28;20049;-77
2023/04/13 14:04:55;;;;;;;5.78;1.27;;;;;;;;;;5066919;28;20036;-74
2023/04/13 14:07:25;;;;;;;18.80;1.90;;;;;;;;;;5065143;28;20529;-75
2023/04/13 14:09:55;;;;;;;5.63;1.23;;;;;;;;;;5066597;28;20048;-73
2023/04/13 14:12:26;;;;;;;6.03;1.20;;;;;;;;;;5066173;28;20044;-75
2023/04/13 14:14:56;;;;;;;5.85;1.42;;;;;;;;;;5066724;28;20048;-74
2023/04/13 14:17:26;;;;;;;7.40;1.85;;;;;;;;;;5066307;28;20049;-76
2023/04/13 14:19:57;;;;;;;5.43;1.88;;;;;;;;;;5066082;28;20059;-73
2023/04/13 14:22:27;;;;;;;8.07;1.80;;;;;;;;;;5066514;28;20073;-76
2023/04/13 14:24:58;;;;;;;7.28;1.38;;;;;;;;;;5066067;28;20426;-73
2023/04/13 14:27:29;;;;;;;9.35;1.63;;;;;;;;;;5065097;28;20071;-77
2023/04/13 14:30:00;;;;;;;6.53;1.30;;;;;;;;;;5066153;28;20060;-74
2023/04/13 14:32:32;;;;;;;6.15;1.73;;;;;;;;;;5065497;28;20045;-73
2023/04/13 14:35:02;;;;;;;9.93;1.50;;;;;;;;;;5065775;28;20498;-77
2023/04/13 14:37:33;;;;;;;8.15;1.90;;;;;;;;;;5065965;28;20498;-74
2023/04/13 14:40:07;;;;;;;18.20;2.47;;;;;;;;;;5065935;28;20056;-78
2023/04/13 14:42:46;;;;;;;11.48;1.95;;;;;;;;;;5066235;28;20041;-76
2023/04/13 14:45:16;;;;;;;6.80;1.88;;;;;;;;;;5067271;28;20041;-72
2023/04/13 14:47:46;;;;;;;6.65;1.75;;;;;;;;;;5069289;28;20040;-77
2023/04/13 14:50:17;;;;;;;5.78;1.30;;;;;;;;;;5067658;28;20053;-73
2023/04/13 14:52:48;;;;;;;10.00;1.52;;;;;;;;;;5069379;28;20052;-74
2023/04/13 14:55:19;;;;;;;7.88;1.17;;;;;;;;;;5069136;28;20411;-75
2023/04/13 14:57:49;;;;;;;7.38;1.40;;;;;;;;;;5068083;28;20060;-75
2023/04/13 15:00:25;;;;;;;4.25;1.05;;;;;;;;;;5068787;28;20057;-77
2023/04/13 15:02:55;;;;;;;4.65;0.93;;;;;;;;;;5069372;28;20053;-76
2023/04/13 15:05:26;;;;;;;7.50;1.15;;;;;;;;;;5069246;28;20518;-75
2023/04/13 15:07:57;;;;;;;4.88;0.80;;;;;;;;;;5068738;28;20071;-75
2023/04/13 15:10:29;;;;;;;4.18;1.20;;;;;;;;;;5069457;28;20503;-73
2023/04/13 15:13:00;;;;;;;6.90;1.20;;;;;;;;;;5069452;28;20410;-75
2023/04/13 15:15:33;;;;;;;5.40;1.40;;;;;;;;;;5069166;28;20049;-77
2023/04/13 15:18:05;;;;;;;5.38;1.38;;;;;;;;;;5070201;28;20055;-77
2023/04/13 15:20:36;;;;;;;7.07;1.13;;;;;;;;;;5069438;28;20598;-74
2023/04/13 15:23:06;;;;;;;7.25;1.40;;;;;;;;;;5069019;28;20048;-78
2023/04/13 15:25:37;;;;;;;6.20;1.52;;;;;;;;;;5069500;28;20056;-76
2023/04/13 15:28:09;;;;;;;8.02;1.10;;;;;;;;;;5069303;28;20037;-77
2023/04/13 15:30:41;;;;;;;11.73;1.40;;;;;;;;;;5069000;28;20531;-75
2023/04/13 15:33:12;;;;;;;5.63;1.85;;;;;;;;;;5068581;28;20048;-77
2023/04/13 15:35:42;;;;;;;10.75;1.40;;;;;;;;;;5069391;28;20500;-74